createdAt,value
2022-11-24T00:02:30.940Z,7.90
2022-11-24T00:05:04.638Z,7.80
2022-11-24T00:07:31.729Z,7.80
2022-11-24T00:10:04.699Z,7.70
2022-11-24T00:12:36.633Z,7.70
2022-11-24T00:15:10.757Z,7.60
2022-11-24T00:17:37.559Z,7.60
2022-11-24T00:20:05.641Z,7.60
2022-11-24T00:22:38.678Z,7.60
2022-11-24T00:25:12.687Z,7.60
2022-11-24T00:27:39.543Z,7.60
2022-11-24T00:30:07.030Z,7.50
2022-11-24T00:32:40.736Z,7.50
2022-11-24T00:35:15.820Z,7.50
2022-11-24T00:37:48.697Z,7.50
2022-11-24T00:40:21.732Z,7.50
2022-11-24T00:42:48.971Z,7.50
2022-11-24T00:45:22.727Z,7.50
2022-11-24T00:47:55.733Z,7.50
2022-11-24T00:50:35.759Z,7.40
2022-11-24T00:53:02.688Z,7.40
2022-11-24T00:55:35.759Z,7.40
2022-11-24T00:58:02.523Z,7.40
2022-11-24T01:00:35.956Z,7.40
2022-11-24T01:03:12.185Z,7.40
2022-11-24T01:05:46.787Z,7.40
2022-11-24T01:08:15.426Z,7.40
2022-11-24T01:10:42.295Z,7.30
2022-11-24T01:13:15.797Z,7.30
2022-11-24T01:15:42.589Z,7.30
2022-11-24T01:18:16.914Z,7.30
2022-11-24T01:20:49.786Z,7.30
2022-11-24T01:23:23.784Z,7.30
2022-11-24T01:25:56.779Z,7.20
2022-11-24T01:28:23.551Z,7.20
2022-11-24T01:31:06.822Z,7.20
2022-11-24T01:33:35.017Z,7.30
2022-11-24T01:36:09.830Z,7.30
2022-11-24T01:38:36.556Z,7.40
2022-11-24T01:41:22.884Z,7.50
2022-11-24T01:43:57.213Z,7.50
2022-11-24T01:46:46.802Z,7.50
2022-11-24T01:49:18.221Z,7.60
2022-11-24T01:52:10.880Z,7.60
2022-11-24T01:54:42.700Z,7.70
2022-11-24T01:57:22.977Z,7.70
2022-11-24T01:59:55.072Z,7.80
2022-11-24T02:02:22.332Z,7.80
2022-11-24T02:04:56.857Z,7.80
2022-11-24T02:07:32.872Z,7.80
2022-11-24T02:10:16.953Z,7.80
2022-11-24T02:12:47.619Z,7.90
2022-11-24T02:15:25.864Z,7.90
2022-11-24T02:17:52.900Z,7.90
2022-11-24T02:20:25.850Z,7.90
2022-11-24T02:23:11.226Z,7.90
2022-11-24T02:25:53.932Z,7.90
2022-11-24T02:28:22.018Z,7.90
2022-11-24T02:30:56.934Z,7.90
2022-11-24T02:33:31.892Z,7.90
2022-11-24T02:35:58.870Z,7.90
2022-11-24T02:38:39.894Z,8.00
2022-11-24T02:41:11.267Z,8.00
2022-11-24T02:43:55.906Z,8.00
2022-11-24T02:46:23.087Z,8.00
2022-11-24T02:48:56.898Z,8.00
2022-11-24T02:51:23.722Z,8.00
2022-11-24T02:53:56.899Z,8.00
2022-11-24T02:56:25.449Z,8.00
2022-11-24T02:58:52.438Z,8.10
2022-11-24T03:01:25.936Z,8.10
2022-11-24T03:03:52.826Z,8.10
2022-11-24T03:06:25.942Z,8.10
2022-11-24T03:08:59.004Z,8.10
2022-11-24T03:11:25.994Z,8.10
2022-11-24T03:13:58.986Z,8.10
2022-11-24T03:16:25.789Z,8.10
2022-11-24T03:18:59.963Z,8.10
2022-11-24T03:21:32.934Z,8.10
2022-11-24T03:24:00.250Z,8.10
2022-11-24T03:26:33.967Z,8.10
2022-11-24T03:29:01.511Z,8.10
2022-11-24T03:31:35.022Z,8.10
2022-11-24T03:34:04.458Z,8.10
2022-11-24T03:36:38.007Z,8.10
2022-11-24T03:39:10.974Z,8.00
2022-11-24T03:41:43.953Z,8.00
2022-11-24T03:44:10.738Z,8.10
2022-11-24T03:46:44.022Z,8.10
2022-11-24T03:49:17.020Z,8.00
2022-11-24T03:51:49.988Z,8.00
2022-11-24T03:54:22.986Z,8.10
2022-11-24T03:56:56.014Z,8.10
2022-11-24T03:59:22.827Z,8.10
2022-11-24T04:01:56.166Z,8.10
2022-11-24T04:04:29.063Z,8.10
2022-11-24T04:06:58.310Z,8.20
2022-11-24T04:09:32.040Z,8.20
2022-11-24T04:12:24.112Z,8.20
2022-11-24T04:14:58.070Z,8.20
2022-11-24T04:17:32.580Z,8.20
2022-11-24T04:20:06.060Z,8.20
2022-11-24T04:22:40.076Z,8.20
2022-11-24T04:25:15.091Z,8.20
2022-11-24T04:27:41.823Z,8.20
2022-11-24T04:30:16.146Z,8.20
2022-11-24T04:32:42.968Z,8.20
2022-11-24T04:35:16.043Z,8.20
2022-11-24T04:37:49.067Z,8.20
2022-11-24T04:40:20.505Z,8.30
2022-11-24T04:43:02.082Z,8.30
2022-11-24T04:45:35.109Z,8.30
2022-11-24T04:48:09.106Z,8.30
2022-11-24T04:50:37.020Z,8.30
2022-11-24T04:53:10.083Z,8.30
2022-11-24T04:55:39.531Z,8.30
2022-11-24T04:58:17.108Z,8.20
2022-11-24T05:00:43.852Z,8.20
2022-11-24T05:03:14.218Z,8.10
2022-11-24T05:05:48.136Z,8.10
2022-11-24T05:08:15.703Z,7.90
2022-11-24T05:10:49.137Z,7.80
2022-11-24T05:13:15.962Z,7.80
2022-11-24T05:15:49.218Z,7.70
2022-11-24T05:18:23.137Z,7.60
2022-11-24T05:20:49.890Z,7.50
2022-11-24T05:23:23.187Z,7.50
2022-11-24T05:25:57.104Z,7.40
2022-11-24T05:28:33.216Z,7.40
2022-11-24T05:31:10.163Z,7.30
2022-11-24T05:33:45.347Z,7.30
2022-11-24T05:36:32.495Z,7.30
2022-11-24T05:39:06.186Z,7.30
2022-11-24T05:41:33.001Z,7.30
2022-11-24T05:43:59.846Z,7.40
2022-11-24T05:46:33.302Z,7.40
2022-11-24T05:49:07.308Z,7.40
2022-11-24T05:51:41.142Z,7.40
2022-11-24T05:54:14.334Z,7.30
2022-11-24T05:56:47.269Z,7.30
2022-11-24T05:59:13.997Z,7.30
2022-11-24T06:01:40.887Z,7.30
2022-11-24T06:04:14.270Z,7.30
2022-11-24T06:06:41.163Z,7.30
2022-11-24T06:09:08.013Z,7.30
2022-11-24T06:11:41.210Z,7.30
2022-11-24T06:14:11.077Z,7.30
2022-11-24T06:16:38.635Z,7.30
2022-11-24T06:19:12.281Z,7.30
2022-11-24T06:21:39.141Z,7.30
2022-11-24T06:24:06.359Z,7.30
2022-11-24T06:26:40.346Z,7.30
2022-11-24T06:29:07.281Z,7.40
2022-11-24T06:31:41.338Z,7.40
2022-11-24T06:34:11.670Z,7.40
2022-11-24T06:36:39.489Z,7.40
2022-11-24T06:39:13.264Z,7.50
2022-11-24T06:41:46.370Z,7.50
2022-11-24T06:44:13.271Z,7.50
2022-11-24T06:46:46.377Z,7.50
2022-11-24T06:49:13.193Z,7.50
2022-11-24T06:51:46.304Z,7.50
2022-11-24T06:54:18.246Z,7.50
2022-11-24T06:56:51.266Z,7.50
2022-11-24T06:59:20.137Z,7.50
2022-11-24T07:01:53.329Z,7.50
2022-11-24T07:04:20.346Z,7.50
2022-11-24T07:06:47.160Z,7.50
2022-11-24T07:09:21.282Z,7.50
2022-11-24T07:11:54.397Z,7.50
2022-11-24T07:14:21.276Z,7.50
2022-11-24T07:16:54.382Z,7.50
2022-11-24T07:19:24.849Z,7.50
2022-11-24T07:22:00.298Z,7.50
2022-11-24T07:24:28.494Z,7.50
2022-11-24T07:26:55.501Z,7.40
2022-11-24T07:29:29.595Z,7.40
2022-11-24T07:32:00.776Z,7.40
2022-11-24T07:34:37.534Z,7.40
2022-11-24T07:37:04.625Z,7.50
2022-11-24T07:39:38.375Z,7.40
2022-11-24T07:42:05.383Z,7.40
2022-11-24T07:44:38.387Z,7.40
2022-11-24T07:47:05.431Z,7.40
2022-11-24T07:49:39.341Z,7.40
2022-11-24T07:52:08.133Z,7.50
2022-11-24T07:54:41.383Z,7.50
2022-11-24T07:57:08.327Z,7.50
2022-11-24T07:59:41.379Z,7.50
2022-11-24T08:02:12.175Z,7.50
2022-11-24T08:04:51.470Z,7.50
2022-11-24T08:07:26.493Z,7.50
2022-11-24T08:09:54.150Z,7.50
2022-11-24T08:12:33.413Z,7.60
2022-11-24T08:15:00.183Z,7.60
2022-11-24T08:17:36.398Z,7.50
2022-11-24T08:20:03.982Z,7.50
2022-11-24T08:22:39.467Z,7.50
2022-11-24T08:25:14.459Z,7.40
2022-11-24T08:27:41.335Z,7.40
2022-11-24T08:30:15.484Z,7.50
2022-11-24T08:32:42.364Z,7.50
2022-11-24T08:35:18.451Z,7.50
2022-11-24T08:37:47.017Z,7.60
2022-11-24T08:40:20.457Z,7.70
2022-11-24T08:42:47.810Z,7.70
2022-11-24T08:45:21.084Z,7.80
2022-11-24T08:48:02.485Z,7.90
2022-11-24T08:50:35.653Z,7.80
2022-11-24T08:53:02.487Z,7.80
2022-11-24T08:55:35.525Z,7.90
2022-11-24T08:58:08.567Z,7.90
2022-11-24T09:00:41.519Z,7.90
2022-11-24T09:03:11.916Z,7.90
2022-11-24T09:05:54.478Z,7.90
2022-11-24T09:08:27.518Z,8.00
2022-11-24T09:10:59.073Z,8.10
2022-11-24T09:13:34.575Z,8.10
2022-11-24T09:16:26.526Z,8.10
2022-11-24T09:19:08.498Z,8.10
2022-11-24T09:21:38.690Z,8.20
2022-11-24T09:24:13.551Z,8.20
2022-11-24T09:26:46.079Z,8.30
2022-11-24T09:29:27.687Z,8.20
2022-11-24T09:31:54.834Z,8.30
2022-11-24T09:34:28.577Z,8.40
2022-11-24T09:36:55.723Z,8.30
2022-11-24T09:39:29.691Z,8.30
2022-11-24T09:42:35.060Z,8.30
2022-11-24T09:45:15.559Z,8.30
2022-11-24T09:48:09.010Z,8.40
2022-11-24T09:50:44.576Z,8.40
2022-11-24T09:53:30.592Z,8.50
2022-11-24T09:56:00.672Z,8.50
2022-11-24T09:59:19.614Z,8.60
2022-11-24T10:01:48.314Z,8.70
2022-11-24T10:04:32.654Z,8.80
2022-11-24T10:07:18.700Z,8.90
2022-11-24T10:10:10.602Z,8.90
2022-11-24T10:13:14.623Z,9.00
2022-11-24T10:16:02.646Z,9.00
2022-11-24T10:18:54.679Z,9.10
2022-11-24T10:21:42.001Z,9.10
2022-11-24T10:24:33.650Z,9.20
2022-11-24T10:27:03.978Z,9.20
2022-11-24T10:29:46.632Z,9.30
2022-11-24T10:32:37.819Z,9.20
2022-11-24T10:35:44.646Z,9.40
2022-11-24T10:38:33.146Z,9.70
2022-11-24T10:41:20.661Z,9.70
2022-11-24T10:43:47.593Z,9.60
2022-11-24T10:46:14.432Z,9.60
2022-11-24T10:48:54.759Z,9.60
2022-11-24T10:51:41.660Z,9.70
2022-11-24T10:54:26.696Z,9.70
2022-11-24T10:57:07.671Z,9.80
2022-11-24T10:59:45.681Z,9.80
2022-11-24T11:02:32.805Z,9.80
2022-11-24T11:05:38.764Z,9.80
2022-11-24T11:08:22.727Z,9.90
2022-11-24T11:11:24.710Z,9.80
2022-11-24T11:14:01.568Z,9.90
2022-11-24T11:16:56.777Z,9.90
2022-11-24T11:19:53.215Z,9.80
2022-11-24T11:22:36.721Z,9.80
2022-11-24T11:25:09.570Z,9.70
2022-11-24T11:27:43.857Z,9.70
2022-11-24T11:36:16.992Z,9.80
2022-11-24T11:38:51.832Z,9.80
2022-11-24T11:41:41.243Z,9.80
2022-11-24T11:44:39.983Z,9.80
2022-11-24T11:47:22.047Z,9.80
2022-11-24T11:49:56.733Z,9.80
2022-11-24T11:52:41.772Z,9.80
2022-11-24T11:56:00.812Z,9.80
2022-11-24T11:58:33.825Z,9.80
2022-11-24T12:01:39.317Z,9.80
2022-11-24T12:04:15.891Z,9.80
2022-11-24T12:07:30.908Z,9.80
2022-11-24T12:10:23.566Z,9.80
2022-11-24T12:12:59.789Z,9.90
2022-11-24T12:15:50.040Z,9.90
2022-11-24T12:18:57.636Z,9.90
2022-11-24T12:21:35.687Z,9.90
2022-11-24T12:24:32.927Z,9.90
2022-11-24T12:27:41.975Z,9.90
2022-11-24T12:30:18.838Z,9.90
2022-11-24T12:33:21.028Z,9.90
2022-11-24T12:36:09.853Z,10.00
2022-11-24T12:38:39.496Z,10.00
2022-11-24T12:41:45.884Z,10.00
2022-11-24T12:45:01.866Z,10.00
2022-11-24T12:48:13.840Z,10.10
2022-11-24T12:50:50.915Z,10.00
2022-11-24T12:53:34.078Z,10.10
2022-11-24T12:56:17.902Z,10.10
2022-11-24T12:59:04.960Z,10.10
2022-11-24T13:01:36.145Z,10.10
2022-11-24T13:04:29.896Z,10.00
2022-11-24T13:07:20.694Z,10.00
2022-11-24T13:13:19.215Z,10.00
2022-11-24T13:19:01.391Z,10.00
2022-11-24T13:21:37.867Z,10.00
2022-11-24T13:24:19.327Z,9.90
2022-11-24T13:26:56.904Z,9.90
2022-11-24T13:29:37.406Z,10.00
2022-11-24T13:32:13.936Z,10.00
2022-11-24T13:34:40.992Z,9.90
2022-11-24T13:37:35.444Z,10.00
2022-11-24T13:40:12.486Z,10.00
2022-11-24T13:43:03.919Z,10.00
2022-11-24T13:45:40.194Z,10.00
2022-11-24T13:48:25.923Z,10.00
2022-11-24T13:51:05.006Z,10.00
2022-11-24T13:53:35.869Z,10.00
2022-11-24T13:56:18.969Z,10.00
2022-11-24T13:58:49.802Z,10.00
2022-11-24T14:01:39.066Z,10.00
2022-11-24T14:04:33.678Z,10.00
2022-11-24T14:07:18.126Z,9.90
2022-11-24T14:09:51.175Z,9.90
2022-11-24T14:12:37.981Z,9.90
2022-11-24T14:15:47.064Z,9.90
2022-11-24T14:18:21.227Z,9.80
2022-11-24T14:20:55.028Z,9.80
2022-11-24T14:23:22.116Z,9.80
2022-11-24T14:25:57.054Z,9.80
2022-11-24T14:28:29.197Z,9.70
2022-11-24T14:31:16.074Z,9.70
2022-11-24T14:33:42.960Z,9.70
2022-11-24T14:36:22.022Z,9.70
2022-11-24T14:38:48.962Z,9.60
2022-11-24T14:41:35.044Z,9.60
2022-11-24T14:44:21.663Z,9.60
2022-11-24T14:46:55.264Z,9.50
2022-11-24T14:49:23.305Z,9.50
2022-11-24T14:52:05.053Z,9.40
2022-11-24T14:54:32.471Z,9.40
2022-11-24T14:57:11.016Z,9.40
2022-11-24T14:59:38.352Z,9.30
2022-11-24T15:02:46.097Z,9.30
2022-11-24T15:05:13.072Z,9.30
2022-11-24T15:07:58.146Z,9.20
2022-11-24T15:10:34.863Z,9.20
2022-11-24T15:13:12.160Z,9.20
2022-11-24T15:15:39.615Z,9.10
2022-11-24T15:18:29.056Z,9.10
2022-11-24T15:20:56.132Z,9.10
2022-11-24T15:23:38.208Z,9.10
2022-11-24T15:26:05.018Z,9.00
2022-11-24T15:28:32.914Z,9.00
2022-11-24T15:31:12.120Z,9.00
2022-11-24T15:33:39.408Z,9.00
2022-11-24T15:36:13.283Z,9.00
2022-11-24T15:38:40.088Z,9.00
2022-11-24T15:41:28.085Z,8.90
2022-11-24T15:43:59.263Z,8.90
2022-11-24T15:46:34.256Z,8.90
2022-11-24T15:49:01.057Z,8.80
2022-11-24T15:51:34.449Z,8.80
2022-11-24T15:54:01.743Z,8.80
2022-11-24T15:56:40.181Z,8.80
2022-11-24T15:59:07.302Z,8.80
2022-11-24T16:01:41.279Z,8.70
2022-11-24T16:04:08.240Z,8.70
2022-11-24T16:06:42.180Z,8.70
2022-11-24T16:09:14.634Z,8.70
2022-11-24T16:11:48.183Z,8.70
2022-11-24T16:14:15.056Z,8.60
2022-11-24T16:16:48.187Z,8.60
2022-11-24T16:19:22.296Z,8.60
2022-11-24T16:21:49.536Z,8.60
2022-11-24T16:24:16.380Z,8.60
2022-11-24T16:26:50.186Z,8.60
2022-11-24T16:29:17.021Z,8.60
2022-11-24T16:31:44.506Z,8.50
2022-11-24T16:34:18.411Z,8.50
2022-11-24T16:36:52.272Z,8.50
2022-11-24T16:39:19.045Z,8.50
2022-11-24T16:41:52.207Z,8.40
2022-11-24T16:44:18.980Z,8.30
2022-11-24T16:46:52.302Z,8.30
2022-11-24T16:49:19.335Z,8.30
2022-11-24T16:51:53.254Z,8.20
2022-11-24T16:54:20.224Z,8.30
2022-11-24T16:56:53.335Z,8.30
2022-11-24T16:59:20.132Z,8.30
2022-11-24T17:01:57.289Z,8.30
2022-11-24T17:04:24.223Z,8.30
2022-11-24T17:06:58.262Z,8.40
2022-11-24T17:09:25.400Z,8.40
2022-11-24T17:11:52.155Z,8.50
2022-11-24T17:14:25.393Z,8.40
2022-11-24T17:16:52.205Z,8.50
2022-11-24T17:19:28.282Z,8.50
2022-11-24T17:22:01.289Z,8.40
2022-11-24T17:24:28.418Z,8.40
2022-11-24T17:26:55.449Z,8.40
2022-11-24T17:29:29.305Z,8.40
2022-11-24T17:31:56.271Z,8.40
2022-11-24T17:34:29.305Z,8.30
2022-11-24T17:37:02.572Z,8.40
2022-11-24T17:39:36.340Z,8.40
2022-11-24T17:42:03.463Z,8.40
2022-11-24T17:44:37.464Z,8.40
2022-11-24T17:47:08.163Z,8.40
2022-11-24T17:49:35.878Z,8.40
2022-11-24T17:52:09.333Z,8.40
2022-11-24T17:54:46.766Z,8.40
2022-11-24T17:57:16.659Z,8.40
2022-11-24T17:59:50.333Z,8.40
2022-11-24T18:02:20.406Z,8.40
2022-11-24T18:04:53.420Z,8.40
2022-11-24T18:07:27.366Z,8.40
2022-11-24T18:09:54.269Z,8.40
2022-11-24T18:12:21.011Z,8.40
2022-11-24T18:14:54.377Z,8.40
2022-11-24T18:17:21.197Z,8.40
2022-11-24T18:19:54.373Z,8.30
2022-11-24T18:22:42.843Z,8.30
2022-11-24T18:25:15.417Z,8.30
2022-11-24T18:27:49.442Z,8.30
2022-11-24T18:30:28.373Z,8.20
2022-11-24T18:32:55.265Z,8.20
2022-11-24T18:35:28.426Z,8.20
2022-11-24T18:38:01.414Z,8.10
2022-11-24T18:40:28.267Z,8.10
2022-11-24T18:43:01.411Z,8.10
2022-11-24T18:45:28.448Z,8.10
2022-11-24T18:48:02.494Z,8.00
2022-11-24T18:50:29.394Z,8.10
2022-11-24T18:53:02.384Z,8.00
2022-11-24T18:55:36.012Z,8.00
2022-11-24T18:58:09.430Z,8.00
2022-11-24T19:00:42.521Z,7.90
2022-11-24T19:03:21.450Z,7.90
2022-11-24T19:05:55.432Z,7.90
2022-11-24T19:08:22.283Z,7.90
2022-11-24T19:10:49.858Z,7.90
2022-11-24T19:13:26.463Z,7.90
2022-11-24T19:16:00.514Z,7.90
2022-11-24T19:18:29.615Z,7.90
2022-11-24T19:21:03.454Z,7.90
2022-11-24T19:23:33.176Z,7.90
2022-11-24T19:26:07.584Z,7.90
2022-11-24T19:28:34.904Z,7.90
2022-11-24T19:31:14.504Z,7.90
2022-11-24T19:33:48.457Z,7.90
2022-11-24T19:36:24.576Z,7.90
2022-11-24T19:39:02.513Z,7.90
2022-11-24T19:41:37.656Z,7.90
2022-11-24T19:44:04.848Z,7.80
2022-11-24T19:46:38.562Z,7.90
2022-11-24T19:49:08.220Z,7.90
2022-11-24T19:51:45.498Z,7.90
2022-11-24T19:54:21.571Z,7.90
2022-11-24T19:56:48.387Z,7.90
2022-11-24T19:59:21.518Z,7.90
2022-11-24T20:01:55.692Z,8.00
2022-11-24T20:04:29.510Z,8.00
2022-11-24T20:06:56.560Z,7.90
2022-11-24T20:09:29.556Z,7.90
2022-11-24T20:12:06.666Z,7.90
2022-11-24T20:14:33.738Z,7.90
2022-11-24T20:17:07.583Z,7.90
2022-11-24T20:19:40.574Z,7.90
2022-11-24T20:22:13.537Z,7.90
2022-11-24T20:24:47.578Z,7.90
2022-11-24T20:27:14.421Z,7.90
2022-11-24T20:29:46.585Z,8.00
2022-11-24T20:32:25.561Z,8.00
2022-11-24T20:34:58.616Z,8.10
2022-11-24T20:37:27.312Z,8.10
2022-11-24T20:40:00.609Z,8.20
2022-11-24T20:42:27.482Z,8.20
2022-11-24T20:45:01.558Z,8.20
2022-11-24T20:47:30.341Z,8.30
2022-11-24T20:50:04.611Z,8.30
2022-11-24T20:52:32.458Z,8.30
2022-11-24T20:55:03.704Z,8.40
2022-11-24T20:57:43.616Z,8.40
2022-11-24T21:00:17.628Z,8.40
2022-11-24T21:02:50.581Z,8.50
2022-11-24T21:05:23.719Z,8.50
2022-11-24T21:07:55.345Z,8.50
2022-11-24T21:10:28.704Z,8.50
2022-11-24T21:12:55.533Z,8.50
2022-11-24T21:15:35.631Z,8.50
2022-11-24T21:18:09.759Z,8.50
2022-11-24T21:20:36.577Z,8.60
2022-11-24T21:23:05.050Z,8.60
2022-11-24T21:25:38.631Z,8.70
2022-11-24T21:28:07.734Z,8.70
2022-11-24T21:30:42.714Z,8.70
2022-11-24T21:33:16.660Z,8.70
2022-11-24T21:35:49.699Z,8.80
2022-11-24T21:38:22.676Z,8.80
2022-11-24T21:41:08.261Z,8.90
2022-11-24T21:43:47.702Z,8.90
2022-11-24T21:46:21.714Z,8.90
2022-11-24T21:48:55.681Z,8.90
2022-11-24T21:51:28.709Z,9.00
2022-11-24T21:53:55.500Z,9.00
2022-11-24T21:56:30.763Z,9.00
2022-11-24T21:59:04.808Z,9.00
2022-11-24T22:01:32.803Z,9.00
2022-11-24T22:04:06.719Z,9.00
2022-11-24T22:06:39.724Z,9.00
2022-11-24T22:09:06.537Z,9.00
2022-11-24T22:11:39.781Z,9.00
2022-11-24T22:14:08.617Z,9.00
2022-11-24T22:16:41.793Z,9.00
2022-11-24T22:19:15.762Z,9.00
2022-11-24T22:21:42.728Z,8.90
2022-11-24T22:24:16.707Z,8.90
2022-11-24T22:26:43.578Z,8.90
2022-11-24T22:29:10.447Z,8.90
2022-11-24T22:31:43.797Z,8.90
2022-11-24T22:34:10.663Z,8.90
2022-11-24T22:36:43.800Z,9.00
2022-11-24T22:39:12.313Z,9.00
2022-11-24T22:41:45.883Z,9.00
2022-11-24T22:44:13.012Z,9.00
2022-11-24T22:46:46.825Z,9.00
2022-11-24T22:49:13.893Z,9.10
2022-11-24T22:51:46.829Z,9.10
2022-11-24T22:54:14.145Z,9.20
2022-11-24T22:56:47.813Z,9.10
2022-11-24T22:59:14.715Z,9.10
2022-11-24T23:01:41.507Z,9.20
2022-11-24T23:04:15.838Z,9.20
2022-11-24T23:06:43.153Z,9.20
2022-11-24T23:09:25.861Z,9.20
2022-11-24T23:11:53.446Z,9.20
2022-11-24T23:14:28.829Z,9.20
2022-11-24T23:16:56.770Z,9.20
2022-11-24T23:19:29.809Z,9.20
2022-11-24T23:21:59.152Z,9.10
2022-11-24T23:24:33.113Z,9.10
2022-11-24T23:27:00.209Z,9.00
2022-11-24T23:29:33.838Z,9.00
2022-11-24T23:32:03.152Z,8.90
2022-11-24T23:34:37.032Z,8.90
2022-11-24T23:37:03.958Z,8.80
2022-11-24T23:39:36.846Z,8.80
2022-11-24T23:42:03.827Z,8.80
2022-11-24T23:44:37.050Z,8.70
2022-11-24T23:47:15.946Z,8.70
2022-11-24T23:49:42.751Z,8.70
2022-11-24T23:52:15.874Z,8.70
2022-11-24T23:54:42.819Z,8.70
2022-11-24T23:57:15.894Z,8.70
2022-11-24T23:59:48.900Z,8.70
